Time;durP1;ratioP1;P1;durP2;ratioP2;P2;SDS_P1;SDS_P2;PMS_P1;PMS_P2;Temp;Humidity;BMP_temperature;BMP_pressure;BME280_temperature;BME280_humidity;BME280_pressure;Samples;Min_cycle;Max_cycle;Signal;HPM_P1;HPM_P2
2021/07/21 00:00:15;;;;;;;14.82;10.23;;;15.80;99.90;;;;;;5094059;28;20078;-68
2021/07/21 00:02:41;;;;;;;14.32;9.80;;;15.70;99.90;;;;;;5094582;28;20039;-70
2021/07/21 00:05:12;;;;;;;16.63;9.57;;;15.60;99.90;;;;;;5094459;28;20123;-70
2021/07/21 00:07:38;;;;;;;12.07;8.48;;;15.60;99.90;;;;;;5094497;28;20082;-70
2021/07/21 00:10:08;;;;;;;16.55;8.90;;;15.50;99.90;;;;;;5093892;28;20064;-69
2021/07/21 00:15:20;;;;;;;11.65;8.68;;;15.60;99.90;;;;;;5094086;28;20441;-70
2021/07/21 00:17:47;;;;;;;14.13;8.85;;;15.60;99.90;;;;;;5094039;28;20115;-70
2021/07/21 00:20:15;;;;;;;14.07;9.32;;;15.60;99.90;;;;;;5093618;28;20032;-69
2021/07/21 00:22:45;;;;;;;12.48;9.23;;;15.60;99.90;;;;;;5094142;28;20097;-70
2021/07/21 00:25:15;;;;;;;12.73;8.63;;;15.60;99.90;;;;;;5094069;28;20098;-70
2021/07/21 00:27:42;;;;;;;13.13;8.13;;;15.60;99.90;;;;;;5092906;28;20043;-70
2021/07/21 00:30:10;;;;;;;16.55;9.55;;;15.60;99.90;;;;;;5093595;28;20407;-70
2021/07/21 00:32:36;;;;;;;18.30;9.30;;;15.60;99.90;;;;;;5094045;28;20497;-70
2021/07/21 00:35:07;;;;;;;15.25;8.25;;;15.60;99.90;;;;;;5093751;28;20043;-69
2021/07/21 00:37:34;;;;;;;13.45;8.93;;;15.60;99.90;;;;;;5093412;28;20048;-70
2021/07/21 00:39:59;;;;;;;13.05;9.05;;;15.60;99.90;;;;;;5093680;28;20433;-69
2021/07/21 00:42:25;;;;;;;12.05;8.77;;;15.60;99.90;;;;;;5094016;28;20044;-70
2021/07/21 00:44:53;;;;;;;14.13;8.85;;;15.60;99.90;;;;;;5093971;28;20083;-70
2021/07/21 00:47:19;;;;;;;12.73;8.75;;;15.60;99.90;;;;;;5093717;28;20127;-70
2021/07/21 00:49:45;;;;;;;12.68;8.18;;;15.50;99.90;;;;;;5093166;28;20036;-70
2021/07/21 00:52:11;;;;;;;12.02;8.55;;;15.60;99.90;;;;;;5093482;28;20043;-70
2021/07/21 00:54:37;;;;;;;13.43;8.30;;;15.50;99.90;;;;;;5093809;28;20341;-70
2021/07/21 00:57:04;;;;;;;13.27;7.90;;;15.40;99.90;;;;;;5093782;28;20054;-69
2021/07/21 00:59:33;;;;;;;14.30;8.63;;;15.40;99.90;;;;;;5093120;28;20036;-69
2021/07/21 01:02:00;;;;;;;13.38;9.02;;;15.40;99.90;;;;;;5093493;28;20036;-69
2021/07/21 01:04:29;;;;;;;15.00;9.02;;;15.40;99.90;;;;;;5093617;28;20480;-69
2021/07/21 01:06:55;;;;;;;12.65;8.93;;;15.40;99.90;;;;;;5093615;28;20154;-69
2021/07/21 01:09:21;;;;;;;17.33;9.55;;;15.40;99.90;;;;;;5093300;28;20052;-69
2021/07/21 01:12:12;;;;;;;11.57;8.02;;;15.40;99.90;;;;;;5092144;28;20503;-70
2021/07/21 01:15:09;;;;;;;15.50;9.20;;;15.40;99.90;;;;;;5093364;28;20372;-70
2021/07/21 01:17:43;;;;;;;13.80;9.20;;;15.40;99.90;;;;;;5093623;28;20048;-70
2021/07/21 01:20:20;;;;;;;12.60;8.50;;;15.40;99.90;;;;;;5093107;28;20060;-69
2021/07/21 01:22:51;;;;;;;11.30;7.15;;;15.30;99.90;;;;;;5093428;28;20051;-70
2021/07/21 01:25:19;;;;;;;11.05;6.65;;;15.20;99.90;;;;;;5093100;28;20499;-70
2021/07/21 01:27:47;;;;;;;9.73;7.20;;;15.20;99.90;;;;;;5093314;28;20093;-70
2021/07/21 01:30:22;;;;;;;7.78;5.97;;;15.20;99.90;;;;;;5092863;28;20075;-70
2021/07/21 01:32:52;;;;;;;6.45;5.22;;;15.20;99.90;;;;;;5093731;28;20036;-69
2021/07/21 01:35:25;;;;;;;7.57;4.40;;;15.20;99.90;;;;;;5093901;28;20487;-69
2021/07/21 01:38:02;;;;;;;4.72;3.42;;;15.20;99.90;;;;;;5093398;28;20052;-69
2021/07/21 01:40:39;;;;;;;9.43;4.28;;;15.10;99.90;;;;;;5092886;28;20036;-69
2021/07/21 01:43:07;;;;;;;7.32;4.70;;;15.10;99.90;;;;;;5093130;28;20050;-69
2021/07/21 01:45:34;;;;;;;6.15;4.25;;;15.10;99.90;;;;;;5092997;28;20037;-69
2021/07/21 01:48:02;;;;;;;9.18;5.63;;;15.10;99.90;;;;;;5093888;28;20035;-69
2021/07/21 01:50:30;;;;;;;8.32;4.75;;;15.10;99.90;;;;;;5096851;28;20032;-70
2021/07/21 01:52:59;;;;;;;8.18;5.80;;;15.10;99.90;;;;;;5097128;28;20036;-70
2021/07/21 01:55:27;;;;;;;11.32;5.45;;;15.10;99.90;;;;;;5096892;28;20028;-69
2021/07/21 01:57:54;;;;;;;7.38;4.90;;;15.10;99.90;;;;;;5097124;28;20043;-70
2021/07/21 02:00:20;;;;;;;7.85;5.32;;;15.10;99.90;;;;;;5096346;28;20043;-70
2021/07/21 02:02:51;;;;;;;6.68;4.63;;;15.00;99.90;;;;;;5096603;28;20406;-69
2021/07/21 02:05:19;;;;;;;5.72;4.07;;;15.00;99.90;;;;;;5096852;28;20040;-70
2021/07/21 02:07:46;;;;;;;6.88;4.78;;;14.90;99.90;;;;;;5096787;28;20420;-69
2021/07/21 02:10:17;;;;;;;6.85;4.40;;;14.90;99.90;;;;;;5096146;28;20087;-70
2021/07/21 02:12:44;;;;;;;7.88;4.93;;;14.80;99.90;;;;;;5096634;28;20145;-70
2021/07/21 02:15:10;;;;;;;9.95;5.82;;;14.80;99.90;;;;;;5096659;28;20040;-69
2021/07/21 02:17:39;;;;;;;9.30;6.60;;;14.90;99.90;;;;;;5096451;28;20472;-69
2021/07/21 02:20:07;;;;;;;6.95;5.22;;;14.80;99.90;;;;;;5096312;28;20166;-69
2021/07/21 02:22:33;;;;;;;9.38;6.50;;;14.90;99.90;;;;;;5096500;28;20032;-70
2021/07/21 02:25:01;;;;;;;10.60;7.50;;;14.90;99.90;;;;;;5096403;28;20047;-70
2021/07/21 02:27:26;;;;;;;10.63;7.40;;;14.90;99.90;;;;;;5096675;28;20040;-70
2021/07/21 02:29:53;;;;;;;10.93;7.32;;;14.70;99.90;;;;;;5095947;28;20036;-70
2021/07/21 02:32:23;;;;;;;11.90;8.25;;;14.70;99.90;;;;;;5096215;28;20071;-69
2021/07/21 02:34:49;;;;;;;10.70;7.22;;;14.80;99.90;;;;;;5096533;28;20038;-69
2021/07/21 02:37:16;;;;;;;10.00;6.88;;;14.90;99.90;;;;;;5096067;28;20047;-69
2021/07/21 02:39:43;;;;;;;14.02;8.07;;;14.90;99.90;;;;;;5095771;28;20039;-69
2021/07/21 02:42:09;;;;;;;13.80;8.52;;;14.90;99.90;;;;;;5095787;28;20036;-70
2021/07/21 02:44:35;;;;;;;10.80;7.53;;;14.90;99.90;;;;;;5095982;28;20040;-70
2021/07/21 02:47:01;;;;;;;12.50;8.07;;;14.90;99.90;;;;;;5096122;28;20525;-69
2021/07/21 02:49:27;;;;;;;15.30;10.15;;;14.80;99.90;;;;;;5095382;28;20032;-69
2021/07/21 02:51:59;;;;;;;16.90;9.32;;;14.90;99.90;;;;;;5096045;28;20051;-69
2021/07/21 02:54:39;;;;;;;14.50;9.75;;;14.90;99.90;;;;;;5094403;28;20396;-69
2021/07/21 02:57:29;;;;;;;16.40;10.93;;;14.80;99.90;;;;;;5094481;28;20469;-70
2021/07/21 02:59:59;;;;;;;17.80;10.52;;;14.90;99.90;;;;;;5095422;28;20552;-69
2021/07/21 03:02:27;;;;;;;18.17;9.80;;;14.90;99.90;;;;;;5095449;28;20397;-69
2021/07/21 03:04:55;;;;;;;15.73;9.88;;;14.80;99.90;;;;;;5095534;28;20116;-70
2021/07/21 03:07:22;;;;;;;17.58;11.00;;;14.90;99.90;;;;;;5095541;28;20048;-69
2021/07/21 03:09:51;;;;;;;16.98;10.43;;;15.00;99.90;;;;;;5095247;28;20066;-69
2021/07/21 03:12:19;;;;;;;17.75;10.38;;;15.10;99.90;;;;;;5095284;28;20468;-69
2021/07/21 03:14:46;;;;;;;17.05;10.57;;;15.10;99.90;;;;;;5095930;28;20495;-70
2021/07/21 03:17:14;;;;;;;16.75;11.15;;;15.20;99.90;;;;;;5095830;28;20051;-69
2021/07/21 03:19:47;;;;;;;17.08;11.05;;;15.20;99.90;;;;;;5093846;28;20484;-70
2021/07/21 03:22:15;;;;;;;18.98;10.38;;;15.20;99.90;;;;;;5095073;28;20032;-70
2021/07/21 03:24:42;;;;;;;14.02;9.27;;;15.10;99.90;;;;;;5095205;28;20042;-69
2021/07/21 03:27:09;;;;;;;15.75;10.10;;;15.10;99.90;;;;;;5095393;28;20036;-70
2021/07/21 03:29:35;;;;;;;13.05;9.00;;;15.10;99.90;;;;;;5094706;28;20090;-69
2021/07/21 03:32:02;;;;;;;15.63;9.73;;;15.10;99.90;;;;;;5094876;28;20036;-69
2021/07/21 03:34:29;;;;;;;13.05;8.43;;;15.10;99.90;;;;;;5095688;28;20036;-69
2021/07/21 03:36:56;;;;;;;18.30;10.25;;;15.10;99.90;;;;;;5094841;28;20391;-69
2021/07/21 03:39:24;;;;;;;14.73;9.80;;;15.20;99.90;;;;;;5094559;28;20487;-69
2021/07/21 03:41:50;;;;;;;14.77;8.50;;;15.20;99.90;;;;;;5095205;28;20039;-69
2021/07/21 03:44:20;;;;;;;14.15;8.95;;;15.20;99.90;;;;;;5094709;28;20089;-69
2021/07/21 03:46:46;;;;;;;14.45;9.25;;;15.20;99.90;;;;;;5095197;28;20487;-69
2021/07/21 03:49:14;;;;;;;19.20;9.60;;;15.20;99.90;;;;;;5094653;28;20047;-69
2021/07/21 03:51:40;;;;;;;11.68;8.07;;;15.30;99.90;;;;;;5094430;28;20082;-69
2021/07/21 03:54:11;;;;;;;15.40;10.30;;;15.40;99.90;;;;;;5094593;28;20483;-69
2021/07/21 03:56:40;;;;;;;13.70;8.77;;;15.40;99.90;;;;;;5094550;28;20445;-69
2021/07/21 03:59:06;;;;;;;12.77;9.05;;;15.40;99.90;;;;;;5094256;28;20054;-70
2021/07/21 04:01:34;;;;;;;16.20;9.63;;;15.40;99.90;;;;;;5094351;28;20036;-69
2021/07/21 04:04:01;;;;;;;16.60;10.48;;;15.50;99.90;;;;;;5094718;28;20040;-69
2021/07/21 04:06:31;;;;;;;13.95;9.18;;;15.50;99.90;;;;;;5094328;28;20047;-69
2021/07/21 04:09:03;;;;;;;13.55;8.95;;;15.50;99.90;;;;;;5094741;28;20040;-69
2021/07/21 04:11:31;;;;;;;14.77;8.65;;;15.50;99.90;;;;;;5093760;28;20044;-69
2021/07/21 04:13:58;;;;;;;11.82;8.57;;;15.60;99.90;;;;;;5093949;28;20165;-69
2021/07/21 04:16:24;;;;;;;16.73;9.40;;;15.60;99.90;;;;;;5094225;28;20036;-69
2021/07/21 04:18:50;;;;;;;12.48;8.70;;;15.70;99.90;;;;;;5092764;28;20505;-69
2021/07/21 04:21:17;;;;;;;16.23;9.75;;;15.70;99.90;;;;;;5094315;28;20039;-70
2021/07/21 04:23:43;;;;;;;15.82;9.80;;;15.70;99.90;;;;;;5094100;28;20046;-70
2021/07/21 04:26:12;;;;;;;15.27;9.70;;;15.70;99.90;;;;;;5094171;28;20078;-69
2021/07/21 04:28:39;;;;;;;16.52;9.65;;;15.80;99.90;;;;;;5093535;28;20458;-70
2021/07/21 04:31:05;;;;;;;16.42;10.65;;;15.70;99.90;;;;;;5093706;28;20391;-70
2021/07/21 04:33:34;;;;;;;14.27;9.63;;;15.70;99.90;;;;;;5093925;28;20111;-70
2021/07/21 04:36:01;;;;;;;12.93;9.20;;;15.70;99.90;;;;;;5093699;28;20036;-70
2021/07/21 04:38:28;;;;;;;14.95;9.40;;;15.70;99.90;;;;;;5093499;28;20062;-68
2021/07/21 04:40:55;;;;;;;16.15;10.02;;;15.70;99.90;;;;;;5093531;28;20043;-70
2021/07/21 04:43:21;;;;;;;13.77;9.52;;;15.70;99.90;;;;;;5093550;28;20040;-69
2021/07/21 04:45:50;;;;;;;15.15;9.52;;;15.80;99.90;;;;;;5093775;28;20047;-69
2021/07/21 04:48:17;;;;;;;15.85;9.85;;;15.70;99.90;;;;;;5094052;28;20075;-70
2021/07/21 04:50:44;;;;;;;15.80;10.38;;;15.80;99.90;;;;;;5093756;28;20036;-69
2021/07/21 04:53:14;;;;;;;14.32;9.85;;;15.80;99.90;;;;;;5093724;28;20043;-70
2021/07/21 04:55:43;;;;;;;15.07;9.80;;;15.80;99.90;;;;;;5093785;28;20036;-70
2021/07/21 04:58:09;;;;;;;15.77;10.02;;;15.90;99.90;;;;;;5093827;28;20051;-69
2021/07/21 05:00:38;;;;;;;16.80;10.38;;;16.00;99.90;;;;;;5093279;28;20040;-69
2021/07/21 05:03:08;;;;;;;14.73;10.32;;;16.00;99.90;;;;;;5093419;28;20032;-69
2021/07/21 05:05:38;;;;;;;13.85;9.23;;;16.00;99.90;;;;;;5093715;28;20036;-70
2021/07/21 05:08:05;;;;;;;14.60;8.98;;;16.10;99.90;;;;;;5092539;28;20032;-70
2021/07/21 05:10:31;;;;;;;15.00;9.20;;;16.20;99.90;;;;;;5092986;28;20040;-69
2021/07/21 05:13:00;;;;;;;13.57;8.63;;;16.20;99.90;;;;;;5093431;28;20039;-70
2021/07/21 05:15:27;;;;;;;14.82;9.63;;;16.20;99.90;;;;;;5093546;28;20044;-70
2021/07/21 05:17:52;;;;;;;12.93;8.95;;;16.30;99.90;;;;;;5093526;28;20040;-70
2021/07/21 05:20:18;;;;;;;14.07;8.68;;;16.30;99.90;;;;;;5093050;28;20502;-70
2021/07/21 05:22:47;;;;;;;13.30;8.82;;;16.40;99.90;;;;;;5093796;28;20111;-70
2021/07/21 05:25:18;;;;;;;13.88;8.52;;;16.50;99.90;;;;;;5097732;28;20036;-70
2021/07/21 05:27:44;;;;;;;13.80;9.30;;;16.50;99.90;;;;;;5097310;28;20043;-70
2021/07/21 05:30:11;;;;;;;14.85;8.90;;;16.60;99.90;;;;;;5097029;28;20066;-69
2021/07/21 05:32:37;;;;;;;15.93;9.75;;;16.60;99.90;;;;;;5097722;28;20036;-70
2021/07/21 05:35:04;;;;;;;13.15;9.02;;;16.70;99.90;;;;;;5097181;28;20043;-70
2021/07/21 05:37:30;;;;;;;11.90;8.40;;;16.90;99.90;;;;;;5097301;28;20396;-70
2021/07/21 05:39:56;;;;;;;15.27;8.88;;;17.00;99.90;;;;;;5096852;28;20032;-70
2021/07/21 05:42:22;;;;;;;13.82;9.50;;;17.10;99.90;;;;;;5097191;28;20040;-70
2021/07/21 05:44:48;;;;;;;13.07;9.45;;;17.20;99.90;;;;;;5097233;28;20032;-70
2021/07/21 05:47:14;;;;;;;13.38;8.98;;;17.20;99.90;;;;;;5097188;28;20043;-69
2021/07/21 05:49:40;;;;;;;11.95;9.02;;;17.30;99.90;;;;;;5096532;28;20048;-69
2021/07/21 05:52:06;;;;;;;12.73;9.25;;;17.30;99.90;;;;;;5096904;28;20095;-68
2021/07/21 05:54:36;;;;;;;15.27;9.43;;;17.30;99.90;;;;;;5097372;28;20036;-69
2021/07/21 05:57:03;;;;;;;14.55;9.85;;;17.50;99.90;;;;;;5096912;28;20052;-67
2021/07/21 05:59:29;;;;;;;12.75;9.00;;;17.60;99.90;;;;;;5096385;28;20406;-68
2021/07/21 06:01:55;;;;;;;14.63;9.35;;;17.60;99.90;;;;;;5096537;28;20040;-68
2021/07/21 06:04:20;;;;;;;13.43;9.38;;;17.60;99.90;;;;;;5095498;28;20092;-68
2021/07/21 06:06:46;;;;;;;13.45;9.13;;;17.60;99.90;;;;;;5096903;28;20122;-69
2021/07/21 06:09:12;;;;;;;12.20;8.43;;;17.70;99.90;;;;;;5096561;28;20055;-69
2021/07/21 06:11:37;;;;;;;14.43;9.95;;;17.70;99.90;;;;;;5096673;28;20043;-69
2021/07/21 06:14:03;;;;;;;12.90;8.95;;;17.70;99.90;;;;;;5096565;28;20040;-69
2021/07/21 06:16:29;;;;;;;10.57;7.65;;;17.70;99.90;;;;;;5096461;28;20047;-69
2021/07/21 06:18:58;;;;;;;11.85;8.80;;;17.80;99.90;;;;;;5095995;28;20040;-69
2021/07/21 06:21:24;;;;;;;11.60;7.95;;;17.80;99.90;;;;;;5096315;28;20040;-69
2021/07/21 06:23:49;;;;;;;11.45;7.90;;;17.80;99.90;;;;;;5096479;28;20044;-69
2021/07/21 06:26:16;;;;;;;14.70;8.32;;;18.00;99.90;;;;;;5096556;28;20040;-69
2021/07/21 06:28:42;;;;;;;10.48;7.70;;;18.10;99.90;;;;;;5096638;28;20089;-69
2021/07/21 06:31:08;;;;;;;11.75;8.00;;;18.20;99.90;;;;;;5096223;28;20043;-70
2021/07/21 06:33:34;;;;;;;10.88;7.40;;;18.40;99.90;;;;;;5095902;28;20036;-70
2021/07/21 06:36:01;;;;;;;11.98;8.18;;;18.60;99.90;;;;;;5096074;28;20044;-70
2021/07/21 06:38:28;;;;;;;12.20;8.10;;;18.80;99.90;;;;;;5095648;28;20483;-70
2021/07/21 06:40:53;;;;;;;9.32;7.72;;;18.80;99.90;;;;;;5095953;28;20043;-70
2021/07/21 06:43:21;;;;;;;10.43;6.90;;;19.00;99.90;;;;;;5096196;28;20048;-70
2021/07/21 06:45:46;;;;;;;10.40;6.93;;;19.10;99.90;;;;;;5096153;28;20429;-70
2021/07/21 06:48:12;;;;;;;8.85;6.95;;;19.20;99.90;;;;;;5096288;28;20043;-70
2021/07/21 06:50:38;;;;;;;10.00;6.50;;;19.40;99.90;;;;;;5095628;28;20036;-70
2021/07/21 06:53:04;;;;;;;7.55;5.57;;;19.60;99.90;;;;;;5095736;28;20036;-70
2021/07/21 06:55:30;;;;;;;8.98;6.75;;;19.70;99.90;;;;;;5096035;28;20036;-70
2021/07/21 06:57:55;;;;;;;8.30;6.25;;;19.60;99.90;;;;;;5095713;28;20051;-70
2021/07/21 07:00:21;;;;;;;8.88;6.20;;;19.60;99.90;;;;;;5095063;28;20040;-70
2021/07/21 07:02:47;;;;;;;8.52;5.60;;;19.70;99.90;;;;;;5094278;28;20118;-70
2021/07/21 07:05:12;;;;;;;11.35;7.10;;;19.60;99.90;;;;;;5094549;28;20032;-70
2021/07/21 07:07:38;;;;;;;7.50;5.60;;;19.60;99.90;;;;;;5095386;28;20043;-70
2021/07/21 07:10:05;;;;;;;19.35;12.93;;;19.60;99.90;;;;;;5095412;28;20177;-70
2021/07/21 07:12:31;;;;;;;10.05;7.32;;;19.50;99.90;;;;;;5095504;28;20036;-68
2021/07/21 07:14:56;;;;;;;7.85;5.35;;;19.50;99.90;;;;;;5095397;28;20040;-67
2021/07/21 07:17:24;;;;;;;6.70;5.10;;;19.50;99.90;;;;;;5095321;28;20066;-67
2021/07/21 07:19:50;;;;;;;7.47;5.70;;;19.50;99.90;;;;;;5094877;28;20089;-67
2021/07/21 07:22:16;;;;;;;8.25;6.03;;;19.60;99.90;;;;;;5095414;28;20032;-68
2021/07/21 07:24:42;;;;;;;7.72;5.28;;;19.70;99.90;;;;;;5095303;28;20044;-68
2021/07/21 07:27:07;;;;;;;7.47;5.72;;;19.90;99.90;;;;;;5095110;28;20086;-67
2021/07/21 07:29:33;;;;;;;7.40;5.28;;;20.00;99.90;;;;;;5094753;28;20046;-67
2021/07/21 07:31:58;;;;;;;7.53;5.65;;;20.00;99.90;;;;;;5094969;28;20075;-67
2021/07/21 07:34:24;;;;;;;6.95;5.35;;;20.00;99.90;;;;;;5095310;28;20054;-67
2021/07/21 07:36:50;;;;;;;8.07;5.60;;;20.10;99.90;;;;;;5094863;28;20036;-68
2021/07/21 07:39:16;;;;;;;5.93;5.07;;;20.30;99.90;;;;;;5094961;28;20042;-67
2021/07/21 07:41:42;;;;;;;9.13;5.97;;;20.50;99.90;;;;;;5094822;28;20078;-68
2021/07/21 07:44:09;;;;;;;8.10;5.68;;;20.80;99.90;;;;;;5094994;28;20040;-67
2021/07/21 07:46:36;;;;;;;7.63;5.75;;;20.90;99.90;;;;;;5094408;28;20479;-67
2021/07/21 07:49:03;;;;;;;6.57;4.90;;;20.90;99.90;;;;;;5094289;28;20040;-67
2021/07/21 07:51:29;;;;;;;7.63;4.90;;;20.80;99.90;;;;;;5094470;28;20032;-67
2021/07/21 07:53:58;;;;;;;7.35;4.95;;;21.00;99.90;;;;;;5094660;28;20085;-67
2021/07/21 07:56:24;;;;;;;7.80;5.05;;;21.20;99.90;;;;;;5094859;28;20071;-69
2021/07/21 07:58:50;;;;;;;5.15;4.25;;;21.20;99.40;;;;;;5094167;28;20048;-67
2021/07/21 08:01:15;;;;;;;5.68;4.63;;;21.10;99.20;;;;;;5094368;28;20040;-67
2021/07/21 08:03:41;;;;;;;6.35;4.40;;;21.00;99.40;;;;;;5094256;28;20043;-68
2021/07/21 08:06:07;;;;;;;9.05;5.40;;;20.90;99.90;;;;;;5093120;28;20099;-67
2021/07/21 08:08:32;;;;;;;10.57;5.10;;;20.90;99.90;;;;;;5094053;28;20067;-67
2021/07/21 08:10:58;;;;;;;7.35;5.20;;;20.80;99.90;;;;;;5094469;28;20475;-68
2021/07/21 08:13:24;;;;;;;6.70;4.85;;;20.80;99.90;;;;;;5094198;28;20546;-68
2021/07/21 08:15:51;;;;;;;9.77;5.22;;;20.80;99.90;;;;;;5094093;28;20044;-68
2021/07/21 08:18:17;;;;;;;7.25;4.82;;;20.70;99.90;;;;;;5094288;28;20065;-68
2021/07/21 08:20:44;;;;;;;5.90;4.40;;;20.70;99.90;;;;;;5093827;28;20040;-69
2021/07/21 08:23:10;;;;;;;7.38;4.57;;;20.60;99.80;;;;;;5093976;28;20040;-69
2021/07/21 08:25:36;;;;;;;9.48;5.65;;;20.80;99.90;;;;;;5093986;28;20131;-69
2021/07/21 08:28:02;;;;;;;6.40;5.03;;;21.00;99.90;;;;;;5093864;28;20487;-69
2021/07/21 08:30:28;;;;;;;6.43;4.80;;;21.10;99.90;;;;;;5093772;28;20114;-69
2021/07/21 08:32:54;;;;;;;6.47;5.30;;;21.10;99.90;;;;;;5094099;28;20070;-69
2021/07/21 08:35:23;;;;;;;8.13;4.97;;;21.00;99.90;;;;;;5093752;28;20040;-70
2021/07/21 08:37:49;;;;;;;8.02;5.03;;;21.10;99.90;;;;;;5093767;28;20484;-70
2021/07/21 08:40:16;;;;;;;10.98;6.30;;;21.10;99.90;;;;;;5093514;28;20046;-69
2021/07/21 08:42:42;;;;;;;8.10;5.60;;;21.10;99.90;;;;;;5093713;28;20036;-69
2021/07/21 08:45:09;;;;;;;6.65;5.00;;;21.20;99.90;;;;;;5092491;28;20471;-69
2021/07/21 08:47:35;;;;;;;6.30;5.20;;;21.20;99.50;;;;;;5093612;28;20051;-69
2021/07/21 08:50:04;;;;;;;7.15;5.18;;;21.10;99.90;;;;;;5093304;28;20040;-69
2021/07/21 08:52:30;;;;;;;7.35;5.47;;;21.10;99.40;;;;;;5094005;28;20086;-69
2021/07/21 08:55:00;;;;;;;8.95;5.80;;;21.10;99.50;;;;;;5093425;28;20541;-69
2021/07/21 08:57:34;;;;;;;9.10;5.80;;;21.00;99.50;;;;;;5093423;28;20078;-69
2021/07/21 09:00:04;;;;;;;9.70;5.53;;;21.00;99.90;;;;;;5093632;28;20040;-69
2021/07/21 09:02:32;;;;;;;10.48;5.40;;;21.00;99.90;;;;;;5093471;28;20066;-69
2021/07/21 09:04:58;;;;;;;7.05;4.97;;;21.00;99.90;;;;;;5092960;28;20107;-69
2021/07/21 09:07:23;;;;;;;8.52;5.57;;;21.00;99.90;;;;;;5093533;28;20064;-69
2021/07/21 09:09:49;;;;;;;9.23;6.13;;;21.10;99.90;;;;;;5093248;28;20463;-70
2021/07/21 09:12:16;;;;;;;6.43;5.03;;;21.10;99.90;;;;;;5093394;28;20040;-70
2021/07/21 09:14:42;;;;;;;7.22;4.85;;;21.20;99.90;;;;;;5093442;28;20483;-70
2021/07/21 09:17:14;;;;;;;7.53;4.78;;;21.30;99.90;;;;;;5093512;28;20066;-68
2021/07/21 09:19:45;;;;;;;7.10;5.90;;;21.40;99.10;;;;;;5093124;28;20040;-69
2021/07/21 09:22:14;;;;;;;7.63;5.35;;;21.40;99.10;;;;;;5093460;28;20043;-69
2021/07/21 09:24:40;;;;;;;6.22;4.88;;;21.50;99.30;;;;;;5093512;28;20371;-69
2021/07/21 09:27:05;;;;;;;6.20;4.80;;;21.50;99.20;;;;;;5093217;28;20096;-69
2021/07/21 09:29:31;;;;;;;7.95;5.47;;;21.50;99.00;;;;;;5093055;28;20395;-69
2021/07/21 09:32:02;;;;;;;6.75;5.30;;;21.50;99.00;;;;;;5093602;28;20063;-69
2021/07/21 09:34:30;;;;;;;9.65;5.53;;;21.40;99.90;;;;;;5093264;28;20380;-69
2021/07/21 09:37:09;;;;;;;5.90;5.15;;;21.50;99.50;;;;;;5091794;28;20040;-69
2021/07/21 09:39:44;;;;;;;8.57;5.32;;;21.80;99.90;;;;;;5092783;28;20142;-69
2021/07/21 09:42:12;;;;;;;8.85;5.72;;;21.90;98.40;;;;;;5093248;28;20036;-69
2021/07/21 09:44:41;;;;;;;6.60;4.78;;;21.90;98.00;;;;;;5092377;28;20161;-69
2021/07/21 09:47:21;;;;;;;9.13;5.70;;;22.00;97.60;;;;;;5093770;28;20051;-70
2021/07/21 09:49:48;;;;;;;7.03;5.57;;;22.30;97.80;;;;;;5092956;28;20056;-71
2021/07/21 09:52:14;;;;;;;6.85;4.85;;;22.60;97.70;;;;;;5093312;28;20028;-69
2021/07/21 09:54:40;;;;;;;7.40;5.53;;;22.60;97.40;;;;;;5092363;28;20135;-69
2021/07/21 09:57:14;;;;;;;8.68;5.78;;;22.50;96.70;;;;;;5092985;28;20394;-69
2021/07/21 09:59:40;;;;;;;7.80;4.80;;;22.60;97.20;;;;;;5092762;28;20156;-69
2021/07/21 10:02:15;;;;;;;8.63;5.28;;;22.50;97.30;;;;;;5092614;28;20055;-69
2021/07/21 10:04:45;;;;;;;7.25;5.75;;;22.40;98.30;;;;;;5093122;28;20044;-69
2021/07/21 10:09:47;;;;;;;9.38;5.57;;;22.20;99.60;;;;;;5094692;28;20037;-70
2021/07/21 10:12:17;;;;;;;7.55;5.28;;;22.60;99.30;;;;;;5096338;28;20047;-69
2021/07/21 10:14:54;;;;;;;6.57;5.13;;;22.70;99.30;;;;;;5096520;28;20036;-69
2021/07/21 10:17:19;;;;;;;6.20;4.47;;;22.70;98.70;;;;;;5096562;28;20357;-70
2021/07/21 10:19:45;;;;;;;6.63;4.93;;;22.60;97.20;;;;;;5096096;28;20062;-70
2021/07/21 10:22:11;;;;;;;5.80;4.40;;;22.50;97.80;;;;;;5096748;28;20112;-70
2021/07/21 10:24:38;;;;;;;7.88;5.47;;;22.40;97.70;;;;;;5096237;28;20058;-70
2021/07/21 10:27:04;;;;;;;6.45;4.50;;;22.40;97.80;;;;;;5096078;28;20487;-70
2021/07/21 10:29:30;;;;;;;6.88;5.28;;;22.50;97.00;;;;;;5096036;28;20036;-70
2021/07/21 10:31:56;;;;;;;10.02;5.75;;;22.70;97.20;;;;;;5096084;28;20548;-70
2021/07/21 10:34:23;;;;;;;7.68;5.55;;;23.00;98.40;;;;;;5096466;28;20062;-70
2021/07/21 10:36:50;;;;;;;7.35;4.95;;;23.10;96.80;;;;;;5096606;28;20499;-70
2021/07/21 10:39:18;;;;;;;6.30;4.88;;;23.10;97.20;;;;;;5095588;28;20040;-70
2021/07/21 10:41:46;;;;;;;5.70;4.60;;;23.10;97.00;;;;;;5095864;28;20085;-70
2021/07/21 10:44:15;;;;;;;7.70;5.00;;;23.00;96.50;;;;;;5094841;28;20476;-69
2021/07/21 10:46:49;;;;;;;7.63;6.00;;;23.00;96.60;;;;;;5095929;28;20039;-70
2021/07/21 10:49:35;;;;;;;7.97;4.82;;;22.90;96.00;;;;;;5095621;28;20040;-70
2021/07/21 11:00:17;;;;;;;7.53;5.43;;;22.60;97.10;;;;;;5095199;28;20039;-69
2021/07/21 11:02:44;;;;;;;9.05;6.35;;;22.60;97.80;;;;;;5095475;28;20376;-69
2021/07/21 11:05:33;;;;;;;9.27;5.78;;;22.70;96.90;;;;;;5095971;28;20089;-70
2021/07/21 11:08:02;;;;;;;8.52;5.65;;;22.90;97.70;;;;;;5090090;28;20051;-70
2021/07/21 11:10:40;;;;;;;8.40;5.47;;;23.00;98.40;;;;;;5095006;28;20506;-71
2021/07/21 11:13:12;;;;;;;7.90;5.35;;;23.10;98.50;;;;;;5095259;28;20032;-70
2021/07/21 11:15:40;;;;;;;6.30;5.53;;;23.20;97.90;;;;;;5095316;28;20040;-71
2021/07/21 11:18:21;;;;;;;8.95;5.43;;;23.10;97.20;;;;;;5095249;28;20127;-69
2021/07/21 11:21:03;;;;;;;6.93;5.75;;;23.00;97.20;;;;;;5093977;28;20403;-69
2021/07/21 11:23:42;;;;;;;6.73;5.27;;;22.80;96.10;;;;;;5095418;28;20084;-69
2021/07/21 11:26:26;;;;;;;9.23;6.10;;;22.50;96.40;;;;;;5094980;28;20032;-69
2021/07/21 11:28:52;;;;;;;9.45;6.13;;;22.30;96.70;;;;;;5095171;28;20065;-69
2021/07/21 11:31:18;;;;;;;7.50;6.25;;;22.40;97.40;;;;;;5095051;28;20094;-69
2021/07/21 11:33:50;;;;;;;9.13;5.78;;;22.30;97.70;;;;;;5094968;28;20036;-71
2021/07/21 11:36:43;;;;;;;9.27;6.45;;;22.30;99.20;;;;;;5094107;28;20481;-71
2021/07/21 11:39:35;;;;;;;8.07;5.82;;;22.50;99.00;;;;;;5094608;28;20074;-71
2021/07/21 11:42:02;;;;;;;10.32;6.55;;;22.50;99.20;;;;;;5094773;28;20036;-71
2021/07/21 11:44:31;;;;;;;8.43;5.65;;;22.50;98.80;;;;;;5094915;28;20040;-71
2021/07/21 11:46:59;;;;;;;8.05;5.93;;;22.40;98.60;;;;;;5095114;28;20051;-71
2021/07/21 11:49:27;;;;;;;8.25;5.57;;;22.30;98.50;;;;;;5093055;28;20549;-70
2021/07/21 11:51:57;;;;;;;8.07;6.10;;;22.30;98.70;;;;;;5094340;28;20123;-71
2021/07/21 11:54:30;;;;;;;11.10;6.80;;;22.20;99.10;;;;;;5094519;28;20040;-71
2021/07/21 11:56:56;;;;;;;10.15;6.03;;;22.20;99.20;;;;;;5094540;28;20471;-71
2021/07/21 11:59:29;;;;;;;8.57;6.35;;;22.20;99.90;;;;;;5094285;28;20071;-71
2021/07/21 12:02:05;;;;;;;;;;;22.30;99.90;;;;;;5094898;28;20067;-71
2021/07/21 12:04:30;;;;;;;10.20;6.78;;;22.20;99.90;;;;;;5094398;28;19999;-70
2021/07/21 12:06:56;;;;;;;8.45;5.80;;;22.20;99.90;;;;;;5094364;28;20166;-70
2021/07/21 12:09:27;;;;;;;9.30;6.45;;;22.10;99.90;;;;;;5093958;28;20040;-71
2021/07/21 12:11:58;;;;;;;9.40;6.07;;;22.10;99.90;;;;;;5093803;28;20032;-71
2021/07/21 12:14:25;;;;;;;10.48;6.47;;;22.20;99.90;;;;;;5093121;28;20043;-71
2021/07/21 12:16:52;;;;;;;8.85;6.18;;;22.40;99.90;;;;;;5094558;28;20043;-70
2021/07/21 12:19:27;;;;;;;6.85;5.95;;;22.60;98.30;;;;;;5094006;28;20035;-71
2021/07/21 12:22:12;;;;;;;8.43;6.80;;;22.60;98.70;;;;;;5094017;28;20069;-71
2021/07/21 12:24:49;;;;;;;7.28;6.15;;;22.60;98.00;;;;;;5093576;28;20048;-71
2021/07/21 12:27:22;;;;;;;9.77;6.05;;;22.60;99.90;;;;;;5094072;28;20119;-70
2021/07/21 12:29:47;;;;;;;11.60;7.47;;;22.60;99.90;;;;;;5093713;28;20040;-70
2021/07/21 12:32:18;;;;;;;8.90;6.75;;;22.50;99.80;;;;;;5093266;28;20464;-71
2021/07/21 12:34:52;;;;;;;8.48;6.10;;;22.50;99.70;;;;;;5093879;28;20075;-71
2021/07/21 12:37:21;;;;;;;9.18;6.28;;;22.40;99.90;;;;;;5093725;28;20452;-71
2021/07/21 12:39:48;;;;;;;9.20;6.32;;;22.30;99.90;;;;;;5093242;28;20488;-71
2021/07/21 12:42:18;;;;;;;8.18;6.63;;;22.20;99.70;;;;;;5094242;28;20097;-70
2021/07/21 12:44:47;;;;;;;21.33;7.78;;;22.20;99.40;;;;;;5093689;28;20032;-71
2021/07/21 12:47:17;;;;;;;12.15;6.65;;;22.20;99.70;;;;;;5093332;28;20131;-71
2021/07/21 12:49:45;;;;;;;9.10;6.60;;;22.10;99.90;;;;;;5093473;28;20499;-70
2021/07/21 12:52:14;;;;;;;10.55;7.28;;;22.00;99.90;;;;;;5093655;28;20071;-71
2021/07/21 12:54:45;;;;;;;10.25;6.75;;;22.00;99.90;;;;;;5093516;28;20042;-70
2021/07/21 12:57:11;;;;;;;9.70;6.63;;;22.00;99.90;;;;;;5093826;28;20044;-71
2021/07/21 12:59:37;;;;;;;9.48;6.18;;;21.90;99.90;;;;;;5093509;28;20040;-71